Time;durP1;ratioP1;P1;durP2;ratioP2;P2;SDS_P1;SDS_P2;PMS_P1;PMS_P2;Temp;Humidity;BMP_temperature;BMP_pressure;BME280_temperature;BME280_humidity;BME280_pressure;Samples;Min_cycle;Max_cycle;Signal;HPM_P1;HPM_P2
2023/02/04 00:02:22;;;;;;;4.68;2.13;;;;;;;7.20;100.00;100024.00;5031114;28;20017;-61
2023/02/04 00:04:47;;;;;;;3.15;2.40;;;;;;;7.14;100.00;100027.28;5047160;28;20388;-62
2023/02/04 00:07:12;;;;;;;5.45;2.65;;;;;;;7.08;100.00;100029.75;5043449;28;20085;-62
2023/02/04 00:09:38;;;;;;;5.40;3.05;;;;;;;7.01;100.00;100033.00;5048495;28;20036;-62
2023/02/04 00:12:09;;;;;;;4.70;3.22;;;;;;;6.91;100.00;100026.00;5024285;28;20025;-62
2023/02/04 00:14:35;;;;;;;5.65;3.45;;;;;;;6.88;100.00;100029.81;5020154;28;20028;-62
2023/02/04 00:17:00;;;;;;;6.32;3.75;;;;;;;6.84;100.00;100035.66;5048867;28;20384;-62
2023/02/04 00:19:25;;;;;;;7.00;3.45;;;;;;;6.76;100.00;100052.56;5021301;28;20481;-61
2023/02/04 00:21:51;;;;;;;6.20;2.97;;;;;;;6.72;100.00;100049.28;5017978;28;20075;-62
2023/02/04 00:24:16;;;;;;;7.70;3.40;;;;;;;6.69;100.00;100051.44;5035741;28;20071;-62
2023/02/04 00:26:41;;;;;;;7.95;3.50;;;;;;;6.67;100.00;100059.66;5052760;28;20021;-62
2023/02/04 00:29:07;;;;;;;6.15;3.58;;;;;;;6.65;100.00;100048.19;5050550;28;20358;-62
2023/02/04 00:31:32;;;;;;;7.53;3.60;;;;;;;6.64;100.00;100054.56;5027887;28;20025;-63
2023/02/04 00:33:58;;;;;;;4.75;3.17;;;;;;;6.61;100.00;100054.03;5048629;28;20381;-62
2023/02/04 00:36:23;;;;;;;7.28;3.97;;;;;;;6.62;100.00;100056.56;5051927;28;20022;-63
2023/02/04 00:38:49;;;;;;;5.45;3.22;;;;;;;6.59;100.00;100064.91;5042576;28;20043;-62
2023/02/04 00:41:14;;;;;;;6.55;3.30;;;;;;;6.62;100.00;100070.00;5046964;28;20033;-62
2023/02/04 00:43:39;;;;;;;7.85;2.92;;;;;;;6.58;100.00;100066.75;5028658;28;20017;-62
2023/02/04 00:46:05;;;;;;;7.60;3.67;;;;;;;6.58;100.00;100063.22;5043313;28;20043;-62
2023/02/04 00:48:30;;;;;;;7.47;3.00;;;;;;;6.60;100.00;100074.66;5046445;28;20132;-62
2023/02/04 00:50:55;;;;;;;5.85;2.88;;;;;;;6.61;100.00;100071.00;5031233;28;20059;-62
2023/02/04 00:53:21;;;;;;;5.45;3.08;;;;;;;6.61;100.00;100068.31;5041112;28;20061;-62
2023/02/04 00:55:46;;;;;;;8.50;3.10;;;;;;;6.59;100.00;100070.28;5044607;28;20060;-62
2023/02/04 00:58:12;;;;;;;5.25;2.63;;;;;;;6.58;100.00;100061.38;5027604;28;20061;-62
2023/02/04 01:00:37;;;;;;;5.82;2.72;;;;;;;6.61;100.00;100068.31;5031477;28;20099;-62
2023/02/04 01:03:03;;;;;;;8.77;2.80;;;;;;;6.62;100.00;100061.94;5033557;28;20120;-62
2023/02/04 01:05:28;;;;;;;6.68;2.40;;;;;;;6.63;100.00;100062.78;5032922;28;20027;-62
2023/02/04 01:07:53;;;;;;;8.65;2.60;;;;;;;6.62;100.00;100061.09;5041103;28;20044;-62
2023/02/04 01:10:19;;;;;;;6.93;2.00;;;;;;;6.62;100.00;100053.84;5033010;28;20021;-62
2023/02/04 01:12:44;;;;;;;7.40;2.00;;;;;;;6.62;100.00;100045.78;5053406;28;20034;-62
2023/02/04 01:15:10;;;;;;;7.63;2.22;;;;;;;6.61;100.00;100054.88;5034106;28;20029;-62
2023/02/04 01:17:35;;;;;;;6.00;2.22;;;;;;;6.62;100.00;100061.09;5048470;28;20516;-62
2023/02/04 01:20:01;;;;;;;9.10;1.95;;;;;;;6.61;100.00;100072.84;5051224;28;20484;-61
2023/02/04 01:22:26;;;;;;;6.63;2.75;;;;;;;6.57;100.00;100070.44;5029022;28;20036;-61
2023/02/04 01:24:51;;;;;;;9.15;2.20;;;;;;;6.57;100.00;100075.81;5028428;28;20056;-61
2023/02/04 01:27:17;;;;;;;5.78;2.00;;;;;;;6.58;100.00;100065.91;5052131;28;20029;-61
2023/02/04 01:29:42;;;;;;;11.85;2.20;;;;;;;6.64;100.00;100076.09;5030730;28;20029;-61
2023/02/04 01:32:08;;;;;;;7.68;2.00;;;;;;;6.67;100.00;100073.09;5044677;28;20063;-61
2023/02/04 01:34:33;;;;;;;8.10;2.08;;;;;;;6.71;100.00;100081.72;5039883;28;20039;-61
2023/02/04 01:36:58;;;;;;;6.65;2.25;;;;;;;6.69;100.00;100079.19;5050033;28;20611;-61
2023/02/04 01:39:24;;;;;;;6.72;2.10;;;;;;;6.75;100.00;100083.97;5051653;28;20028;-61
2023/02/04 01:41:49;;;;;;;9.63;2.13;;;;;;;6.74;100.00;100081.44;5036190;28;20029;-61
2023/02/04 01:44:15;;;;;;;9.40;2.10;;;;;;;6.76;100.00;100085.69;5045408;28;20080;-60
2023/02/04 01:46:40;;;;;;;6.05;1.60;;;;;;;6.80;100.00;100087.06;5034168;28;20025;-60
2023/02/04 01:49:06;;;;;;;5.20;2.00;;;;;;;6.79;100.00;100093.44;5047919;28;20020;-61
2023/02/04 01:51:31;;;;;;;7.32;2.33;;;;;;;6.82;100.00;100091.47;5019773;28;20459;-60
2023/02/04 01:53:59;;;;;;;6.22;2.13;;;;;;;6.83;100.00;100106.59;5038693;28;20037;-60
2023/02/04 01:56:26;;;;;;;5.75;2.10;;;;;;;6.84;100.00;100097.50;5033962;28;20056;-60
2023/02/04 01:58:53;;;;;;;10.52;2.55;;;;;;;6.82;100.00;100104.91;5028855;28;20029;-61
2023/02/04 02:01:33;;;;;;;7.40;1.83;;;;;;;6.85;100.00;100115.38;5015674;28;20376;-60
2023/02/04 02:03:58;;;;;;;;;;;;;;;6.84;100.00;100114.53;5037845;28;20490;-60
2023/02/04 02:06:24;;;;;;;4.97;1.83;;;;;;;6.82;100.00;100115.66;5026530;28;19913;-60
2023/02/04 02:08:49;;;;;;;6.25;2.15;;;;;;;6.83;100.00;100111.97;5038305;28;20108;-60
2023/02/04 02:11:15;;;;;;;5.78;2.08;;;;;;;6.86;100.00;100109.81;5039224;28;20033;-60
2023/02/04 02:13:40;;;;;;;9.15;2.00;;;;;;;6.84;100.00;100106.47;5023039;28;20119;-60
2023/02/04 02:16:06;;;;;;;9.20;2.38;;;;;;;6.84;100.00;100108.28;5035325;28;20048;-60
2023/02/04 02:18:31;;;;;;;6.13;2.30;;;;;;;6.79;100.00;100116.81;5037523;28;20494;-60
2023/02/04 02:21:03;;;;;;;6.18;2.00;;;;;;;6.77;100.00;100121.47;5052153;28;20455;-60
2023/02/04 02:23:59;;;;;;;6.75;2.70;;;;;;;6.74;100.00;100125.31;5032655;28;20428;-61
2023/02/04 02:26:25;;;;;;;7.15;2.72;;;;;;;6.75;100.00;100118.09;5028456;28;20048;-60
2023/02/04 02:28:51;;;;;;;9.85;2.22;;;;;;;6.71;100.00;100108.63;5023631;28;20033;-60
2023/02/04 02:31:19;;;;;;;9.10;2.30;;;;;;;6.73;100.00;100107.50;5047573;28;20029;-60
2023/02/04 02:33:45;;;;;;;6.53;1.90;;;;;;;6.73;100.00;100104.81;5024888;28;20061;-60
2023/02/04 02:36:11;;;;;;;5.32;2.05;;;;;;;6.69;100.00;100110.59;5043445;28;20032;-62
2023/02/04 02:38:37;;;;;;;5.97;2.10;;;;;;;6.65;100.00;100115.41;5060301;28;20033;-60
2023/02/04 02:41:04;;;;;;;5.97;1.98;;;;;;;6.68;100.00;100116.97;5037665;28;20049;-60
2023/02/04 02:43:30;;;;;;;6.95;1.90;;;;;;;6.64;100.00;100123.66;5028374;28;20057;-60
2023/02/04 02:45:58;;;;;;;6.00;2.05;;;;;;;6.61;100.00;100118.56;5034315;28;20036;-61
2023/02/04 02:48:24;;;;;;;7.60;1.63;;;;;;;6.66;100.00;100119.81;5028054;28;20032;-60
2023/02/04 02:50:50;;;;;;;6.78;1.70;;;;;;;6.68;100.00;100120.53;5031200;28;20029;-60
2023/02/04 02:53:17;;;;;;;6.18;1.52;;;;;;;6.61;100.00;100114.03;5032884;28;20112;-60
2023/02/04 02:55:45;;;;;;;3.95;1.65;;;;;;;6.62;100.00;100120.25;5034630;28;20045;-60
2023/02/04 02:58:32;;;;;;;7.47;1.55;;;;;;;6.64;100.00;100119.09;5053129;28;20033;-60
2023/02/04 03:01:00;;;;;;;7.40;1.60;;;;;;;6.62;100.00;100123.78;5034896;28;20069;-60
2023/02/04 03:03:30;;;;;;;7.25;1.70;;;;;;;6.61;100.00;100130.16;5020736;28;20033;-61
2023/02/04 03:06:01;;;;;;;8.43;1.52;;;;;;;6.58;100.00;100131.31;5037595;28;20532;-60
2023/02/04 03:08:27;;;;;;;4.47;1.63;;;;;;;6.54;100.00;100129.03;5023445;28;20025;-60
2023/02/04 03:10:52;;;;;;;7.57;1.42;;;;;;;6.48;100.00;100130.47;5023328;28;20025;-60
2023/02/04 03:13:19;;;;;;;6.07;1.50;;;;;;;6.51;100.00;100138.25;5047471;28;22101;-60
2023/02/04 03:15:46;;;;;;;4.72;1.63;;;;;;;6.48;100.00;100151.13;5030421;28;20115;-60
2023/02/04 03:18:14;;;;;;;7.38;1.35;;;;;;;6.47;100.00;100154.78;5038517;28;20501;-61
2023/02/04 03:20:41;;;;;;;7.93;1.98;;;;;;;6.50;100.00;100159.91;5041181;28;20087;-61
2023/02/04 03:23:07;;;;;;;8.48;1.73;;;;;;;6.44;100.00;100166.69;5016555;28;20029;-60
2023/02/04 03:25:32;;;;;;;7.85;2.25;;;;;;;6.39;100.00;100168.09;5025738;28;20025;-60
2023/02/04 03:27:58;;;;;;;5.38;1.63;;;;;;;6.38;100.00;100163.75;5034647;28;20087;-60
2023/02/04 03:30:24;;;;;;;8.02;1.48;;;;;;;6.33;100.00;100177.59;5036850;28;20021;-60
2023/02/04 03:32:50;;;;;;;9.52;1.60;;;;;;;6.32;100.00;100179.44;5026504;28;20028;-60
2023/02/04 03:35:16;;;;;;;7.03;1.58;;;;;;;6.42;100.00;100179.44;5036165;28;20060;-60
2023/02/04 03:37:42;;;;;;;12.65;2.22;;;;;;;6.41;100.00;100174.19;5042203;28;20108;-60
2023/02/04 03:40:09;;;;;;;6.68;1.45;;;;;;;6.36;100.00;100180.84;5043764;28;20115;-60
2023/02/04 03:42:35;;;;;;;6.93;1.67;;;;;;;6.25;100.00;100186.38;5040188;28;20033;-60
2023/02/04 03:45:00;;;;;;;7.55;1.60;;;;;;;6.15;100.00;100191.72;5023098;28;20052;-60
2023/02/04 03:47:26;;;;;;;6.20;2.00;;;;;;;6.16;100.00;100200.66;5042364;28;20037;-60
2023/02/04 03:49:51;;;;;;;6.60;1.73;;;;;;;6.13;100.00;100208.97;5029602;28;20060;-60
2023/02/04 03:52:17;;;;;;;4.80;1.73;;;;;;;6.05;100.00;100214.22;5051593;28;20033;-60
2023/02/04 03:54:42;;;;;;;9.20;1.88;;;;;;;6.02;100.00;100225.25;5028816;28;20028;-60
2023/02/04 03:57:07;;;;;;;7.22;1.63;;;;;;;5.99;100.00;100233.59;5030197;28;20024;-60
2023/02/04 03:59:34;;;;;;;6.18;1.63;;;;;;;5.91;100.00;100237.78;5050878;28;20434;-60
2023/02/04 04:01:59;;;;;;;8.90;2.25;;;;;;;5.83;100.00;100242.97;5050600;28;20035;-60
2023/02/04 04:04:25;;;;;;;4.85;1.60;;;;;;;5.80;100.00;100240.56;5056692;28;20391;-60
2023/02/04 04:06:50;;;;;;;7.43;1.83;;;;;;;5.82;100.00;100230.56;5033707;28;20041;-60
2023/02/04 04:09:15;;;;;;;8.77;1.67;;;;;;;5.83;100.00;100226.88;5054490;28;20059;-60
2023/02/04 04:11:41;;;;;;;8.75;1.85;;;;;;;5.86;100.00;100233.81;5047604;28;20086;-60
2023/02/04 04:14:06;;;;;;;6.43;1.25;;;;;;;5.82;100.00;100227.88;5034321;28;20036;-60
2023/02/04 04:16:31;;;;;;;6.28;1.67;;;;;;;5.76;100.00;100231.09;5043128;28;20036;-60
2023/02/04 04:18:57;;;;;;;4.45;1.40;;;;;;;5.68;100.00;100241.66;5017352;28;20389;-60
2023/02/04 04:21:22;;;;;;;4.93;1.73;;;;;;;5.66;100.00;100243.66;5042801;28;20464;-61
2023/02/04 04:23:47;;;;;;;7.40;1.42;;;;;;;5.55;100.00;100249.94;5054236;28;20025;-60
2023/02/04 04:26:13;;;;;;;7.50;1.98;;;;;;;5.52;100.00;100255.59;5033048;28;20032;-60
2023/02/04 04:28:38;;;;;;;8.00;1.52;;;;;;;5.51;100.00;100255.75;5034343;28;20034;-60
2023/02/04 04:31:03;;;;;;;8.65;1.85;;;;;;;5.43;100.00;100259.94;5050511;28;20036;-60
2023/02/04 04:33:29;;;;;;;9.93;1.80;;;;;;;5.40;100.00;100272.78;5045979;28;20103;-60
2023/02/04 04:35:55;;;;;;;8.63;1.60;;;;;;;5.38;100.00;100266.72;5034402;28;20396;-60
2023/02/04 04:38:21;;;;;;;6.88;1.55;;;;;;;5.35;100.00;100285.78;5025709;28;20033;-66
2023/02/04 04:40:46;;;;;;;8.80;1.45;;;;;;;5.32;100.00;100286.00;5039535;28;20074;-61
2023/02/04 04:43:12;;;;;;;7.43;1.52;;;;;;;5.38;100.00;100289.03;5044233;28;20024;-60
2023/02/04 04:45:37;;;;;;;5.07;1.52;;;;;;;5.39;100.00;100282.66;5012344;28;20469;-60
2023/02/04 04:48:03;;;;;;;8.65;1.92;;;;;;;5.40;100.00;100305.00;5019794;28;20560;-60
2023/02/04 04:50:28;;;;;;;11.88;2.10;;;;;;;5.46;100.00;100299.94;5033378;28;20201;-60
2023/02/04 04:52:54;;;;;;;8.75;1.80;;;;;;;5.53;100.00;100294.91;5035879;28;20067;-60
2023/02/04 04:55:19;;;;;;;10.55;2.38;;;;;;;5.54;100.00;100287.69;5042866;28;20043;-60
2023/02/04 04:57:45;;;;;;;8.77;1.50;;;;;;;5.50;100.00;100297.81;5028174;28;20033;-60
2023/02/04 05:00:15;;;;;;;12.77;2.20;;;;;;;5.48;100.00;100292.59;5039314;28;20024;-61
2023/02/04 05:02:42;;;;;;;4.38;1.45;;;;;;;5.44;100.00;100291.16;5036982;28;20037;-60
2023/02/04 05:05:07;;;;;;;8.55;1.65;;;;;;;5.39;100.00;100288.03;5021219;28;20029;-60
2023/02/04 05:07:33;;;;;;;7.95;1.80;;;;;;;5.33;100.00;100285.88;5025862;28;20025;-60
2023/02/04 05:09:58;;;;;;;12.23;2.47;;;;;;;5.31;100.00;100285.16;5031594;28;20124;-60
2023/02/04 05:12:23;;;;;;;9.60;1.73;;;;;;;5.28;100.00;100282.75;5022628;28;20468;-60
2023/02/04 05:14:49;;;;;;;4.32;2.00;;;;;;;5.26;100.00;100287.38;5051008;28;20514;-60
2023/02/04 05:17:14;;;;;;;16.52;2.05;;;;;;;5.32;100.00;100291.38;5025251;28;20025;-60
2023/02/04 05:19:40;;;;;;;10.27;2.28;;;;;;;5.27;100.00;100299.84;5058744;28;20017;-60
2023/02/04 05:22:05;;;;;;;13.20;2.08;;;;;;;5.25;100.00;100291.06;5036911;28;20029;-60
2023/02/04 05:24:30;;;;;;;10.57;2.30;;;;;;;5.22;100.00;100294.03;5037241;28;20031;-60
2023/02/04 05:26:56;;;;;;;11.63;2.00;;;;;;;5.25;100.00;100301.81;5046948;28;20057;-60
2023/02/04 05:29:21;;;;;;;8.80;2.30;;;;;;;5.27;100.00;100302.53;5041128;28;20057;-60
2023/02/04 05:31:46;;;;;;;9.85;2.20;;;;;;;5.26;100.00;100306.19;5032434;28;20094;-60
2023/02/04 05:34:12;;;;;;;6.25;2.10;;;;;;;5.23;100.00;100309.13;5019513;28;20036;-60
2023/02/04 05:36:37;;;;;;;7.63;2.45;;;;;;;5.15;100.00;100307.09;5044183;28;20161;-60
2023/02/04 05:39:02;;;;;;;7.85;2.08;;;;;;;5.10;100.00;100311.16;5044597;28;20445;-60
2023/02/04 05:41:28;;;;;;;12.68;1.85;;;;;;;5.01;100.00;100307.44;5054510;28;20059;-60
2023/02/04 05:43:53;;;;;;;9.15;3.63;;;;;;;4.98;100.00;100305.03;5045846;28;20029;-59
2023/02/04 05:46:18;;;;;;;10.18;1.77;;;;;;;4.94;100.00;100303.56;5037427;28;20029;-60
2023/02/04 05:48:44;;;;;;;15.82;2.97;;;;;;;4.87;100.00;100292.50;5071825;22;20558;-76
2023/02/04 05:51:09;;;;;;;8.15;2.10;;;;;;;4.89;100.00;100309.31;5059585;28;20028;-75
2023/02/04 05:53:34;;;;;;;8.52;2.20;;;;;;;4.91;100.00;100318.09;5068692;28;20393;-76
2023/02/04 05:56:00;;;;;;;10.93;2.42;;;;;;;4.93;100.00;100324.19;5067279;28;20058;-76
2023/02/04 05:58:32;;;;;;;11.43;2.13;;;;;;;4.93;100.00;100308.09;5069069;28;20036;-73
2023/02/04 06:00:58;;;;;;;11.32;2.20;;;;;;;4.99;100.00;100318.28;5069864;28;20381;-75
2023/02/04 06:03:23;;;;;;;11.52;2.95;;;;;;;4.94;100.00;100314.31;5075921;28;20029;-75
2023/02/04 06:05:48;;;;;;;9.35;2.50;;;;;;;4.96;100.00;100329.28;5065457;28;20023;-74
2023/02/04 06:08:14;;;;;;;12.98;2.90;;;;;;;4.99;100.00;100345.13;5068914;28;20078;-74
2023/02/04 06:10:40;;;;;;;7.85;2.22;;;;;;;4.98;100.00;100332.69;5042624;28;20114;-74
2023/02/04 06:13:05;;;;;;;6.25;2.20;;;;;;;4.88;100.00;100349.69;5076279;28;20458;-74
2023/02/04 06:15:30;;;;;;;8.00;2.08;;;;;;;4.64;100.00;100337.34;5059514;28;20478;-74
2023/02/04 06:17:57;;;;;;;5.32;2.00;;;;;;;4.59;100.00;100347.63;5075982;28;20437;-74
2023/02/04 06:20:22;;;;;;;12.68;2.42;;;;;;;4.44;100.00;100339.00;5066092;28;20091;-74
2023/02/04 06:22:50;;;;;;;14.07;2.78;;;;;;;4.42;100.00;100367.75;5065658;28;20028;-75
2023/02/04 06:25:16;;;;;;;16.77;3.15;;;;;;;4.19;100.00;100348.19;5065983;28;20064;-75
2023/02/04 06:27:41;;;;;;;8.45;2.15;;;;;;;4.11;100.00;100354.19;5046522;28;20115;-73
2023/02/04 06:30:07;;;;;;;13.77;2.72;;;;;;;4.08;100.00;100372.31;5069384;28;20040;-74
2023/02/04 06:32:32;;;;;;;9.32;2.38;;;;;;;4.04;100.00;100385.09;5077199;28;20043;-74
2023/02/04 06:34:58;;;;;;;13.32;2.50;;;;;;;3.98;100.00;100379.38;5062376;28;20025;-75
2023/02/04 06:37:23;;;;;;;11.35;2.75;;;;;;;3.98;100.00;100385.56;5034230;28;20025;-75
2023/02/04 06:39:48;;;;;;;9.25;2.58;;;;;;;3.92;100.00;100367.31;5066211;28;20478;-75
2023/02/04 06:42:14;;;;;;;10.90;2.92;;;;;;;3.90;100.00;100372.81;5063567;28;20078;-77
2023/02/04 06:44:39;;;;;;;10.68;2.53;;;;;;;4.05;100.00;100392.16;5066351;28;20029;-74
2023/02/04 06:47:04;;;;;;;14.02;3.08;;;;;;;4.10;100.00;100389.94;5075703;28;20020;-72
2023/02/04 06:49:29;;;;;;;18.67;3.42;;;;;;;4.13;100.00;100404.94;5042156;28;20021;-71
2023/02/04 06:51:55;;;;;;;14.18;3.08;;;;;;;4.22;100.00;100414.91;5062902;28;20124;-70
2023/02/04 06:54:20;;;;;;;16.38;3.28;;;;;;;4.16;100.00;100378.75;5056560;28;20036;-72
2023/02/04 06:56:46;;;;;;;13.80;3.22;;;;;;;4.34;100.00;100397.84;5071109;28;20040;-72
2023/02/04 06:59:11;;;;;;;13.52;2.38;;;;;;;4.41;100.00;100400.88;5069100;28;20475;-70
2023/02/04 07:01:36;;;;;;;10.45;3.13;;;;;;;4.44;100.00;100392.59;5065389;28;20474;-72
2023/02/04 07:04:02;;;;;;;12.70;2.40;;;;;;;4.41;100.00;100398.22;5068846;28;20055;-73
2023/02/04 07:06:27;;;;;;;13.02;2.55;;;;;;;4.42;100.00;100396.38;5069462;28;20502;-70
2023/02/04 07:08:52;;;;;;;9.57;3.20;;;;;;;4.46;100.00;100403.19;5065721;28;20036;-70
2023/02/04 07:11:18;;;;;;;13.93;4.10;;;;;;;4.44;100.00;100407.81;5062579;28;20033;-70
2023/02/04 07:13:43;;;;;;;14.55;4.43;;;;;;;4.52;100.00;100424.97;5059651;28;20037;-71
2023/02/04 07:16:08;;;;;;;15.50;4.47;;;;;;;4.59;100.00;100426.19;5070222;28;20016;-72
2023/02/04 07:18:34;;;;;;;15.55;3.50;;;;;;;4.66;100.00;100431.03;5083933;28;20025;-72
2023/02/04 07:20:59;;;;;;;12.55;3.33;;;;;;;4.91;100.00;100451.34;5082429;28;20040;-72
2023/02/04 07:23:26;;;;;;;15.30;2.63;;;;;;;5.07;100.00;100442.88;5070906;28;20025;-73
2023/02/04 07:25:52;;;;;;;12.02;2.63;;;;;;;5.09;100.00;100435.56;5076582;28;20031;-73
2023/02/04 07:28:18;;;;;;;12.35;2.45;;;;;;;5.17;100.00;100449.19;5052680;28;20600;-71
2023/02/04 07:30:43;;;;;;;7.35;2.90;;;;;;;5.15;100.00;100440.41;5040597;28;20025;-76
2023/02/04 07:33:09;;;;;;;10.43;2.55;;;;;;;5.10;100.00;100431.88;5047520;28;20104;-75
2023/02/04 07:35:34;;;;;;;15.13;3.42;;;;;;;4.98;100.00;100434.63;5066623;28;20375;-74
2023/02/04 07:37:59;;;;;;;18.50;3.67;;;;;;;4.99;100.00;100449.72;5068530;28;20025;-75
2023/02/04 07:40:25;;;;;;;12.38;3.92;;;;;;;4.90;100.00;100437.09;5062748;28;20152;-72
2023/02/04 07:42:50;;;;;;;9.45;3.17;;;;;;;4.90;100.00;100434.41;5045848;28;20039;-72
2023/02/04 07:45:15;;;;;;;22.33;3.30;;;;;;;4.92;100.00;100445.00;5060184;28;20060;-72
2023/02/04 07:47:41;;;;;;;17.08;4.45;;;;;;;4.85;100.00;100450.03;5071280;28;20020;-72
2023/02/04 07:50:18;;;;;;;10.60;3.22;;;;;;;4.88;100.00;100449.75;5040576;28;20020;-76
2023/02/04 07:52:43;;;;;;;11.88;3.67;;;;;;;4.91;100.00;100462.91;5052773;28;20042;-76
2023/02/04 07:55:09;;;;;;;12.05;3.20;;;;;;;4.81;100.00;100460.13;5052877;28;20017;-75
2023/02/04 07:57:34;;;;;;;10.18;3.40;;;;;;;4.78;100.00;100473.78;5076583;28;20032;-79
2023/02/04 08:03:21;;;;;;;12.07;3.80;;;;;;;4.81;100.00;100486.94;5076503;28;20063;-77
2023/02/04 08:05:46;;;;;;;16.25;6.70;;;;;;;4.79;100.00;100482.69;5047590;28;20028;-77
2023/02/04 08:08:12;;;;;;;20.98;8.45;;;;;;;4.80;100.00;100469.16;5062324;28;20047;-77
2023/02/04 08:10:37;;;;;;;23.70;8.50;;;;;;;5.12;100.00;100491.63;5050784;28;20090;-76
2023/02/04 08:16:31;;;;;;;9.15;4.25;;;;;;;5.01;100.00;100460.34;5052385;28;20040;-80
2023/02/04 08:18:57;;;;;;;15.23;4.20;;;;;;;4.81;100.00;100433.31;5057679;28;20493;-73
2023/02/04 08:21:22;;;;;;;15.05;4.72;;;;;;;4.88;100.00;100439.03;5066596;28;20043;-73
2023/02/04 08:23:48;;;;;;;18.23;6.75;;;;;;;5.26;100.00;100491.31;5070920;28;20052;-71
2023/02/04 08:26:13;;;;;;;17.92;6.07;;;;;;;5.38;100.00;100511.78;5062440;28;20024;-72
2023/02/04 08:28:38;;;;;;;17.05;5.57;;;;;;;5.24;100.00;100506.72;5063480;28;20043;-75
2023/02/04 08:31:47;;;;;;;12.90;5.22;;;;;;;5.05;100.00;100505.53;5059018;28;20088;-80
2023/02/04 08:34:29;;;;;;;18.50;8.15;;;;;;;4.72;100.00;100497.59;5086680;28;20071;-80
2023/02/04 08:37:27;;;;;;;19.85;6.32;;;;;;;4.12;100.00;100436.22;5071661;28;20028;-80
2023/02/04 08:39:54;;;;;;;30.45;8.63;;;;;;;4.16;100.00;100463.59;5053507;28;20028;-80
2023/02/04 08:42:33;;;;;;;;;;;;;;;;;;;;;
2023/02/04 08:45:00;;;;;;;26.42;8.40;;;;;;;4.00;100.00;100421.13;5091171;28;20056;-80
2023/02/04 08:47:26;;;;;;;18.90;6.68;;;;;;;4.70;100.00;100515.63;5070786;28;20031;-78
2023/02/04 08:49:51;;;;;;;22.75;6.57;;;;;;;4.81;100.00;100529.00;5064432;28;20025;-68
2023/02/04 08:52:17;;;;;;;18.50;6.57;;;;;;;4.79;100.00;100522.91;5066698;28;20054;-80
2023/02/04 08:54:43;;;;;;;20.33;7.65;;;;;;;4.94;100.00;100543.13;5046344;28;20043;-71
2023/02/04 08:57:08;;;;;;;23.63;7.88;;;;;;;4.92;100.00;100525.44;5044311;28;20029;-77
2023/02/04 08:59:33;;;;;;;17.30;6.40;;;;;;;5.10;100.00;100537.34;5063705;28;20020;-79
2023/02/04 09:01:59;;;;;;;21.60;7.05;;;;;;;5.20;100.00;100507.94;5057025;28;20028;-76
2023/02/04 09:04:24;;;;;;;10.32;4.30;;;;;;;5.57;100.00;100508.41;5055206;28;20024;-76
2023/02/04 09:06:50;;;;;;;14.10;4.45;;;;;;;6.27;100.00;100524.88;5049098;28;20055;-77
2023/02/04 09:09:16;;;;;;;11.27;4.30;;;;;;;6.59;100.00;100522.91;5043840;28;20071;-79
2023/02/04 09:11:42;;;;;;;12.07;4.25;;;;;;;6.68;100.00;100502.44;5055507;28;20044;-77
2023/02/04 09:14:07;;;;;;;13.90;4.03;;;;;;;6.67;100.00;100522.22;5056976;28;20024;-78
2023/02/04 09:16:33;;;;;;;17.30;4.22;;;;;;;6.39;100.00;100510.34;5050129;28;20027;-78
2023/02/04 09:18:58;;;;;;;10.10;3.42;;;;;;;6.65;100.00;100540.34;5047435;28;20064;-78
2023/02/04 09:21:25;;;;;;;16.25;3.58;;;;;;;6.85;100.00;100533.19;5045797;28;20020;-76
2023/02/04 09:23:50;;;;;;;12.20;3.20;;;;;;;6.29;100.00;100514.84;5071972;28;20067;-76
2023/02/04 09:26:16;;;;;;;9.80;3.10;;;;;;;6.62;100.00;100527.16;5052446;28;20029;-77
2023/02/04 09:28:41;;;;;;;14.88;3.58;;;;;;;6.71;100.00;100555.09;5043263;28;20040;-77
2023/02/04 09:31:07;;;;;;;16.65;3.13;;;;;;;6.63;100.00;100550.41;5054314;28;20052;-73
2023/02/04 09:33:38;;;;;;;13.27;3.50;;;;;;;6.74;100.00;100555.66;5058183;28;20028;-78
2023/02/04 09:36:04;;;;;;;13.02;4.68;;;;;;;6.86;100.00;100551.03;5052164;28;20183;-79
2023/02/04 09:38:29;;;;;;;20.27;4.55;;;;;;;7.16;100.00;100563.59;5071929;28;20533;-81
2023/02/04 09:41:07;;;;;;;15.23;5.95;;;;;;;7.25;100.00;100553.81;5038687;28;20013;-71
2023/02/04 09:43:45;;;;;;;12.27;5.30;;;;;;;7.25;100.00;100570.81;5055165;28;21739;-73
2023/02/04 09:46:22;;;;;;;18.83;5.45;;;;;;;7.26;100.00;100558.25;5060007;28;20048;-79
2023/02/04 09:49:37;;;;;;;22.85;7.35;;;;;;;7.46;100.00;100567.19;5073076;28;20049;-81
2023/02/04 09:52:23;;;;;;;13.98;5.15;;;;;;;7.42;100.00;100550.47;5043242;28;20065;-80
2023/02/04 09:54:49;;;;;;;17.55;4.22;;;;;;;7.58;100.00;100565.22;5062972;28;20093;-77
2023/02/04 09:57:19;;;;;;;16.02;4.93;;;;;;;7.57;100.00;100580.53;5053978;28;20601;-74
2023/02/04 09:59:45;;;;;;;14.60;4.55;;;;;;;7.50;100.00;100578.53;5046599;28;20017;-72
2023/02/04 10:02:16;;;;;;;13.02;3.72;;;;;;;7.84;100.00;100565.50;5062613;28;20031;-71
2023/02/04 10:04:41;;;;;;;17.90;4.30;;;;;;;8.12;100.00;100578.13;5047193;28;20025;-72
2023/02/04 10:07:12;;;;;;;15.88;3.88;;;;;;;8.34;100.00;100565.28;5049017;28;20033;-74
2023/02/04 10:09:39;;;;;;;13.43;3.30;;;;;;;8.74;100.00;100565.03;5065285;28;20412;-78
2023/02/04 10:12:05;;;;;;;10.90;3.08;;;;;;;8.49;100.00;100542.28;5063063;28;20024;-73
2023/02/04 10:14:30;;;;;;;9.23;2.50;;;;;;;8.77;100.00;100577.38;5066144;28;20482;-72
2023/02/04 10:16:58;;;;;;;18.40;2.90;;;;;;;8.92;100.00;100562.41;5059312;28;20029;-78
2023/02/04 10:19:25;;;;;;;16.65;2.80;;;;;;;8.78;100.00;100561.06;5035308;28;20024;-71
2023/02/04 10:21:51;;;;;;;15.40;2.15;;;;;;;9.08;100.00;100556.34;5054138;28;20021;-70
2023/02/04 10:24:25;;;;;;;15.57;2.60;;;;;;;9.43;100.00;100561.00;5065524;28;20734;-70
2023/02/04 10:26:51;;;;;;;20.52;2.63;;;;;;;9.53;100.00;100560.06;5047795;28;20016;-71
2023/02/04 10:29:24;;;;;;;11.85;2.38;;;;;;;10.20;100.00;100568.59;5062021;28;20040;-70
2023/02/04 10:31:50;;;;;;;9.90;2.38;;;;;;;10.52;100.00;100547.19;5061051;28;20031;-71
2023/02/04 10:34:20;;;;;;;14.70;2.63;;;;;;;10.95;100.00;100558.06;5058494;28;20039;-71
2023/02/04 10:36:48;;;;;;;13.70;2.53;;;;;;;11.55;100.00;100563.34;5067587;28;20029;-71
2023/02/04 10:39:28;;;;;;;15.98;3.22;;;;;;;13.67;100.00;100547.59;5069085;28;20048;-71
2023/02/04 10:41:57;;;;;;;16.38;3.08;;;;;;;16.56;72.65;100553.66;5058760;28;20029;-70
2023/02/04 10:44:28;;;;;;;10.00;2.33;;;;;;;17.59;67.38;100553.78;5061711;28;20100;-71
2023/02/04 10:47:13;;;;;;;11.77;2.45;;;;;;;18.68;59.32;100547.13;5061350;28;20044;-72
2023/02/04 10:49:39;;;;;;;12.38;2.55;;;;;;;20.71;53.65;100537.31;5064714;28;20020;-72
2023/02/04 10:52:15;;;;;;;10.60;2.38;;;;;;;21.88;48.17;100539.84;5040805;28;20397;-72
2023/02/04 10:54:41;;;;;;;10.63;2.00;;;;;;;20.13;48.33;100544.75;5044423;28;20588;-72
2023/02/04 10:57:25;;;;;;;12.88;2.08;;;;;;;17.74;53.91;100553.59;5065713;28;20111;-72
2023/02/04 10:59:54;;;;;;;12.68;2.88;;;;;;;15.53;61.55;100560.47;5038749;28;20078;-70
2023/02/04 11:02:31;;;;;;;;;;;;;;;15.59;63.97;100565.16;5060719;28;20025;-72
2023/02/04 11:04:56;;;;;;;12.52;2.45;;;;;;;14.91;68.12;100564.53;5071598;28;19920;-71
2023/02/04 11:07:22;;;;;;;15.32;2.88;;;;;;;13.83;78.75;100562.94;5067544;28;20023;-71
2023/02/04 11:09:48;;;;;;;10.82;2.38;;;;;;;13.13;92.99;100559.28;5063895;28;20021;-71
2023/02/04 11:12:37;;;;;;;16.48;2.60;;;;;;;13.85;84.47;100562.78;5053798;28;20199;-72
2023/02/04 11:15:04;;;;;;;15.60;2.83;;;;;;;14.78;76.53;100558.88;5060304;28;20020;-72
2023/02/04 11:17:31;;;;;;;11.50;2.13;;;;;;;15.21;72.61;100554.41;5055615;28;20025;-71
2023/02/04 11:19:58;;;;;;;7.72;2.00;;;;;;;14.97;68.17;100544.69;5065642;28;20032;-70
2023/02/04 11:22:40;;;;;;;12.18;2.03;;;;;;;14.51;65.35;100541.25;5061066;28;20143;-71
2023/02/04 11:25:36;;;;;;;13.77;2.35;;;;;;;13.50;69.49;100546.88;5061934;28;20025;-71
2023/02/04 11:28:23;;;;;;;9.50;2.22;;;;;;;12.32;80.19;100551.38;5045197;28;20485;-71
2023/02/04 11:31:01;;;;;;;11.65;2.00;;;;;;;11.33;100.00;100548.56;5063559;28;20112;-70